sensor_id;sensor_type;location;lat;lon;timestamp;P1;durP1;ratioP1;P2;durP2;ratioP2
23113;SDS011;11726;50.122;8.832;2022-07-29T00:02:26;7.25;;;1.80;;
23113;SDS011;11726;50.122;8.832;2022-07-29T00:04:53;8.82;;;1.70;;
23113;SDS011;11726;50.122;8.832;2022-07-29T00:07:20;6.72;;;1.77;;
23113;SDS011;11726;50.122;8.832;2022-07-29T00:09:47;4.00;;;1.70;;
23113;SDS011;11726;50.122;8.832;2022-07-29T00:12:17;8.77;;;1.83;;
23113;SDS011;11726;50.122;8.832;2022-07-29T00:14:51;4.43;;;1.70;;
23113;SDS011;11726;50.122;8.832;2022-07-29T00:17:19;3.25;;;1.80;;
23113;SDS011;11726;50.122;8.832;2022-07-29T00:19:46;4.32;;;1.75;;
23113;SDS011;11726;50.122;8.832;2022-07-29T00:22:13;5.47;;;2.00;;
23113;SDS011;11726;50.122;8.832;2022-07-29T00:24:39;7.50;;;1.77;;
23113;SDS011;11726;50.122;8.832;2022-07-29T00:27:06;7.82;;;1.70;;
23113;SDS011;11726;50.122;8.832;2022-07-29T00:29:33;4.20;;;2.10;;
23113;SDS011;11726;50.122;8.832;2022-07-29T00:32:01;4.82;;;2.17;;
23113;SDS011;11726;50.122;8.832;2022-07-29T00:34:28;5.90;;;2.20;;
23113;SDS011;11726;50.122;8.832;2022-07-29T00:37:14;5.60;;;2.17;;
23113;SDS011;11726;50.122;8.832;2022-07-29T00:39:41;8.98;;;2.22;;
23113;SDS011;11726;50.122;8.832;2022-07-29T00:42:08;7.53;;;2.20;;
23113;SDS011;11726;50.122;8.832;2022-07-29T00:44:36;4.25;;;1.83;;
23113;SDS011;11726;50.122;8.832;2022-07-29T00:47:04;8.43;;;2.30;;
23113;SDS011;11726;50.122;8.832;2022-07-29T00:49:31;10.98;;;2.10;;
23113;SDS011;11726;50.122;8.832;2022-07-29T00:52:00;5.00;;;1.80;;
23113;SDS011;11726;50.122;8.832;2022-07-29T00:54:27;8.32;;;1.92;;
23113;SDS011;11726;50.122;8.832;2022-07-29T00:56:56;6.65;;;2.13;;
23113;SDS011;11726;50.122;8.832;2022-07-29T00:59:24;7.10;;;2.30;;
23113;SDS011;11726;50.122;8.832;2022-07-29T01:02:00;3.40;;;1.92;;
23113;SDS011;11726;50.122;8.832;2022-07-29T01:04:28;4.15;;;2.05;;
23113;SDS011;11726;50.122;8.832;2022-07-29T01:06:56;11.50;;;2.10;;
23113;SDS011;11726;50.122;8.832;2022-07-29T01:09:24;6.40;;;2.20;;
23113;SDS011;11726;50.122;8.832;2022-07-29T01:12:17;5.13;;;1.88;;
23113;SDS011;11726;50.122;8.832;2022-07-29T01:14:45;3.72;;;2.15;;
23113;SDS011;11726;50.122;8.832;2022-07-29T01:17:15;6.15;;;2.50;;
23113;SDS011;11726;50.122;8.832;2022-07-29T01:22:37;3.58;;;1.90;;
23113;SDS011;11726;50.122;8.832;2022-07-29T01:25:46;7.22;;;2.03;;
23113;SDS011;11726;50.122;8.832;2022-07-29T01:31:27;5.68;;;1.92;;
23113;SDS011;11726;50.122;8.832;2022-07-29T01:34:09;3.92;;;1.90;;
23113;SDS011;11726;50.122;8.832;2022-07-29T01:36:46;6.45;;;1.95;;
23113;SDS011;11726;50.122;8.832;2022-07-29T01:39:17;5.97;;;1.80;;
23113;SDS011;11726;50.122;8.832;2022-07-29T01:42:34;4.45;;;2.20;;
23113;SDS011;11726;50.122;8.832;2022-07-29T01:47:26;5.65;;;2.00;;
23113;SDS011;11726;50.122;8.832;2022-07-29T01:50:27;4.65;;;2.15;;
23113;SDS011;11726;50.122;8.832;2022-07-29T01:53:01;3.10;;;2.20;;
23113;SDS011;11726;50.122;8.832;2022-07-29T01:55:35;6.20;;;2.10;;
23113;SDS011;11726;50.122;8.832;2022-07-29T01:58:06;7.50;;;2.20;;
23113;SDS011;11726;50.122;8.832;2022-07-29T02:00:33;6.05;;;2.20;;
23113;SDS011;11726;50.122;8.832;2022-07-29T02:03:02;3.53;;;1.90;;
23113;SDS011;11726;50.122;8.832;2022-07-29T02:05:31;5.95;;;2.50;;
23113;SDS011;11726;50.122;8.832;2022-07-29T02:08:00;6.07;;;2.40;;
23113;SDS011;11726;50.122;8.832;2022-07-29T02:10:28;3.30;;;2.03;;
23113;SDS011;11726;50.122;8.832;2022-07-29T02:12:57;5.32;;;2.30;;
23113;SDS011;11726;50.122;8.832;2022-07-29T02:15:25;5.03;;;2.47;;
23113;SDS011;11726;50.122;8.832;2022-07-29T02:18:11;2.72;;;2.30;;
23113;SDS011;11726;50.122;8.832;2022-07-29T02:20:42;3.83;;;2.47;;
23113;SDS011;11726;50.122;8.832;2022-07-29T02:23:13;6.30;;;2.28;;
23113;SDS011;11726;50.122;8.832;2022-07-29T02:25:43;4.30;;;2.15;;
23113;SDS011;11726;50.122;8.832;2022-07-29T02:28:10;5.82;;;2.25;;
23113;SDS011;11726;50.122;8.832;2022-07-29T02:30:39;5.75;;;2.40;;
23113;SDS011;11726;50.122;8.832;2022-07-29T02:33:08;5.68;;;2.30;;
23113;SDS011;11726;50.122;8.832;2022-07-29T02:35:38;5.13;;;2.25;;
23113;SDS011;11726;50.122;8.832;2022-07-29T02:38:07;7.20;;;2.40;;
23113;SDS011;11726;50.122;8.832;2022-07-29T02:40:53;5.38;;;2.45;;
23113;SDS011;11726;50.122;8.832;2022-07-29T02:43:23;4.57;;;2.33;;
23113;SDS011;11726;50.122;8.832;2022-07-29T02:45:51;7.63;;;2.63;;
23113;SDS011;11726;50.122;8.832;2022-07-29T02:48:22;8.32;;;2.40;;
23113;SDS011;11726;50.122;8.832;2022-07-29T02:51:01;5.80;;;2.40;;
23113;SDS011;11726;50.122;8.832;2022-07-29T02:53:33;5.00;;;2.58;;
23113;SDS011;11726;50.122;8.832;2022-07-29T02:56:08;5.68;;;2.50;;
23113;SDS011;11726;50.122;8.832;2022-07-29T02:58:45;6.25;;;2.60;;
23113;SDS011;11726;50.122;8.832;2022-07-29T03:01:25;6.60;;;2.13;;
23113;SDS011;11726;50.122;8.832;2022-07-29T03:03:57;5.00;;;2.55;;
23113;SDS011;11726;50.122;8.832;2022-07-29T03:06:29;5.00;;;2.40;;
23113;SDS011;11726;50.122;8.832;2022-07-29T03:09:04;7.15;;;2.47;;
23113;SDS011;11726;50.122;8.832;2022-07-29T03:11:38;6.03;;;2.60;;
23113;SDS011;11726;50.122;8.832;2022-07-29T03:14:16;3.63;;;2.13;;
23113;SDS011;11726;50.122;8.832;2022-07-29T03:16:45;2.95;;;2.15;;
23113;SDS011;11726;50.122;8.832;2022-07-29T03:19:13;3.60;;;2.42;;
23113;SDS011;11726;50.122;8.832;2022-07-29T03:21:40;4.97;;;2.10;;
23113;SDS011;11726;50.122;8.832;2022-07-29T03:24:07;6.88;;;2.47;;
23113;SDS011;11726;50.122;8.832;2022-07-29T03:26:36;4.60;;;2.50;;
23113;SDS011;11726;50.122;8.832;2022-07-29T03:29:02;4.28;;;2.40;;
23113;SDS011;11726;50.122;8.832;2022-07-29T03:31:30;7.03;;;2.65;;
23113;SDS011;11726;50.122;8.832;2022-07-29T03:33:58;5.85;;;2.28;;
23113;SDS011;11726;50.122;8.832;2022-07-29T03:36:25;4.32;;;2.20;;
23113;SDS011;11726;50.122;8.832;2022-07-29T03:38:52;7.05;;;2.55;;
23113;SDS011;11726;50.122;8.832;2022-07-29T03:41:20;6.00;;;2.70;;
23113;SDS011;11726;50.122;8.832;2022-07-29T03:43:48;8.15;;;2.60;;
23113;SDS011;11726;50.122;8.832;2022-07-29T03:46:17;6.18;;;2.75;;
23113;SDS011;11726;50.122;8.832;2022-07-29T03:48:46;10.23;;;2.88;;
23113;SDS011;11726;50.122;8.832;2022-07-29T03:51:17;9.93;;;2.50;;
23113;SDS011;11726;50.122;8.832;2022-07-29T03:53:59;10.63;;;2.60;;
23113;SDS011;11726;50.122;8.832;2022-07-29T03:59:03;7.18;;;2.58;;
23113;SDS011;11726;50.122;8.832;2022-07-29T04:01:30;8.63;;;2.60;;
23113;SDS011;11726;50.122;8.832;2022-07-29T04:04:01;5.22;;;2.63;;
23113;SDS011;11726;50.122;8.832;2022-07-29T04:06:28;5.25;;;2.78;;
23113;SDS011;11726;50.122;8.832;2022-07-29T04:09:02;10.25;;;2.90;;
23113;SDS011;11726;50.122;8.832;2022-07-29T04:11:29;9.57;;;2.90;;
23113;SDS011;11726;50.122;8.832;2022-07-29T04:13:56;8.27;;;2.80;;
23113;SDS011;11726;50.122;8.832;2022-07-29T04:16:22;8.52;;;2.63;;
23113;SDS011;11726;50.122;8.832;2022-07-29T04:18:49;5.38;;;2.97;;
23113;SDS011;11726;50.122;8.832;2022-07-29T04:21:16;7.07;;;2.70;;
23113;SDS011;11726;50.122;8.832;2022-07-29T04:23:42;4.10;;;2.90;;
23113;SDS011;11726;50.122;8.832;2022-07-29T04:26:19;7.13;;;2.88;;
23113;SDS011;11726;50.122;8.832;2022-07-29T04:28:46;8.05;;;2.63;;
23113;SDS011;11726;50.122;8.832;2022-07-29T04:31:13;4.53;;;2.95;;
23113;SDS011;11726;50.122;8.832;2022-07-29T04:33:40;4.72;;;2.78;;
23113;SDS011;11726;50.122;8.832;2022-07-29T04:36:07;7.82;;;3.10;;
23113;SDS011;11726;50.122;8.832;2022-07-29T04:38:54;4.85;;;3.17;;
23113;SDS011;11726;50.122;8.832;2022-07-29T04:41:20;8.77;;;2.70;;
23113;SDS011;11726;50.122;8.832;2022-07-29T04:43:48;4.82;;;2.35;;
23113;SDS011;11726;50.122;8.832;2022-07-29T04:46:15;4.63;;;2.90;;
23113;SDS011;11726;50.122;8.832;2022-07-29T04:48:42;6.35;;;2.90;;
23113;SDS011;11726;50.122;8.832;2022-07-29T04:51:11;5.38;;;2.70;;
23113;SDS011;11726;50.122;8.832;2022-07-29T04:53:37;6.50;;;2.60;;
23113;SDS011;11726;50.122;8.832;2022-07-29T04:56:04;7.28;;;2.90;;
23113;SDS011;11726;50.122;8.832;2022-07-29T04:58:31;5.65;;;2.35;;
23113;SDS011;11726;50.122;8.832;2022-07-29T05:00:59;7.25;;;3.17;;
23113;SDS011;11726;50.122;8.832;2022-07-29T05:03:26;7.57;;;2.63;;
23113;SDS011;11726;50.122;8.832;2022-07-29T05:05:53;7.80;;;3.08;;
23113;SDS011;11726;50.122;8.832;2022-07-29T05:08:19;6.25;;;2.55;;
23113;SDS011;11726;50.122;8.832;2022-07-29T05:10:46;6.18;;;2.50;;
23113;SDS011;11726;50.122;8.832;2022-07-29T05:13:13;8.00;;;2.97;;
23113;SDS011;11726;50.122;8.832;2022-07-29T05:15:39;5.65;;;2.75;;
23113;SDS011;11726;50.122;8.832;2022-07-29T05:18:06;7.40;;;2.72;;
23113;SDS011;11726;50.122;8.832;2022-07-29T05:20:33;7.25;;;2.75;;
23113;SDS011;11726;50.122;8.832;2022-07-29T05:23:02;4.95;;;2.53;;
23113;SDS011;11726;50.122;8.832;2022-07-29T05:25:29;8.52;;;3.10;;
23113;SDS011;11726;50.122;8.832;2022-07-29T05:28:10;6.30;;;2.70;;
23113;SDS011;11726;50.122;8.832;2022-07-29T05:30:37;7.70;;;2.95;;
23113;SDS011;11726;50.122;8.832;2022-07-29T05:33:04;5.85;;;2.63;;
23113;SDS011;11726;50.122;8.832;2022-07-29T05:35:30;6.03;;;2.63;;
23113;SDS011;11726;50.122;8.832;2022-07-29T05:37:57;6.75;;;2.75;;
23113;SDS011;11726;50.122;8.832;2022-07-29T05:40:24;5.72;;;2.28;;
23113;SDS011;11726;50.122;8.832;2022-07-29T05:42:50;5.22;;;2.08;;
23113;SDS011;11726;50.122;8.832;2022-07-29T05:45:17;5.55;;;2.53;;
23113;SDS011;11726;50.122;8.832;2022-07-29T05:47:44;9.05;;;2.60;;
23113;SDS011;11726;50.122;8.832;2022-07-29T05:50:11;4.57;;;2.28;;
23113;SDS011;11726;50.122;8.832;2022-07-29T05:52:38;5.32;;;2.58;;
23113;SDS011;11726;50.122;8.832;2022-07-29T05:55:05;3.47;;;2.20;;
23113;SDS011;11726;50.122;8.832;2022-07-29T05:57:32;5.80;;;2.35;;
23113;SDS011;11726;50.122;8.832;2022-07-29T05:59:58;5.93;;;2.67;;
23113;SDS011;11726;50.122;8.832;2022-07-29T06:02:25;4.50;;;2.88;;
23113;SDS011;11726;50.122;8.832;2022-07-29T06:04:51;8.27;;;2.70;;
23113;SDS011;11726;50.122;8.832;2022-07-29T06:07:19;9.00;;;2.97;;
23113;SDS011;11726;50.122;8.832;2022-07-29T06:09:45;4.93;;;2.33;;
23113;SDS011;11726;50.122;8.832;2022-07-29T06:12:12;3.97;;;2.35;;
23113;SDS011;11726;50.122;8.832;2022-07-29T06:14:39;4.35;;;2.20;;
23113;SDS011;11726;50.122;8.832;2022-07-29T06:17:06;5.45;;;2.30;;
23113;SDS011;11726;50.122;8.832;2022-07-29T06:19:36;5.05;;;2.45;;
23113;SDS011;11726;50.122;8.832;2022-07-29T06:22:03;9.52;;;2.80;;
23113;SDS011;11726;50.122;8.832;2022-07-29T06:24:30;6.70;;;2.65;;
23113;SDS011;11726;50.122;8.832;2022-07-29T06:26:56;9.27;;;2.97;;
23113;SDS011;11726;50.122;8.832;2022-07-29T06:29:23;7.13;;;2.45;;
23113;SDS011;11726;50.122;8.832;2022-07-29T06:31:50;4.13;;;2.00;;
23113;SDS011;11726;50.122;8.832;2022-07-29T06:34:17;6.28;;;2.33;;
23113;SDS011;11726;50.122;8.832;2022-07-29T06:36:45;7.30;;;2.40;;
23113;SDS011;11726;50.122;8.832;2022-07-29T06:39:13;6.70;;;2.55;;
23113;SDS011;11726;50.122;8.832;2022-07-29T06:41:40;4.00;;;2.25;;
23113;SDS011;11726;50.122;8.832;2022-07-29T06:44:07;5.40;;;2.25;;
23113;SDS011;11726;50.122;8.832;2022-07-29T06:46:33;5.78;;;2.22;;
23113;SDS011;11726;50.122;8.832;2022-07-29T06:49:00;6.00;;;2.13;;
23113;SDS011;11726;50.122;8.832;2022-07-29T06:51:28;4.85;;;2.20;;
23113;SDS011;11726;50.122;8.832;2022-07-29T06:53:54;3.90;;;2.20;;
23113;SDS011;11726;50.122;8.832;2022-07-29T06:56:32;8.98;;;2.30;;
23113;SDS011;11726;50.122;8.832;2022-07-29T06:59:05;6.55;;;2.33;;
23113;SDS011;11726;50.122;8.832;2022-07-29T07:01:33;5.20;;;2.20;;
23113;SDS011;11726;50.122;8.832;2022-07-29T07:04:00;2.78;;;1.90;;
23113;SDS011;11726;50.122;8.832;2022-07-29T07:06:26;5.55;;;2.17;;
23113;SDS011;11726;50.122;8.832;2022-07-29T07:08:53;5.68;;;2.30;;
23113;SDS011;11726;50.122;8.832;2022-07-29T07:11:20;6.03;;;2.40;;
23113;SDS011;11726;50.122;8.832;2022-07-29T07:13:46;5.72;;;2.40;;
23113;SDS011;11726;50.122;8.832;2022-07-29T07:16:13;7.47;;;2.38;;
23113;SDS011;11726;50.122;8.832;2022-07-29T07:18:40;3.88;;;2.10;;
23113;SDS011;11726;50.122;8.832;2022-07-29T07:21:06;5.25;;;2.22;;
23113;SDS011;11726;50.122;8.832;2022-07-29T07:23:33;5.25;;;2.05;;
23113;SDS011;11726;50.122;8.832;2022-07-29T07:26:00;2.58;;;1.92;;
23113;SDS011;11726;50.122;8.832;2022-07-29T07:28:26;5.45;;;2.10;;
23113;SDS011;11726;50.122;8.832;2022-07-29T07:30:53;4.05;;;2.15;;
23113;SDS011;11726;50.122;8.832;2022-07-29T07:33:20;4.40;;;2.25;;
23113;SDS011;11726;50.122;8.832;2022-07-29T07:35:46;4.05;;;2.25;;
23113;SDS011;11726;50.122;8.832;2022-07-29T07:38:13;7.25;;;2.30;;
23113;SDS011;11726;50.122;8.832;2022-07-29T07:40:40;3.80;;;2.00;;
23113;SDS011;11726;50.122;8.832;2022-07-29T07:43:06;5.13;;;2.25;;
23113;SDS011;11726;50.122;8.832;2022-07-29T07:45:33;5.88;;;2.13;;
23113;SDS011;11726;50.122;8.832;2022-07-29T07:48:00;5.57;;;2.40;;
23113;SDS011;11726;50.122;8.832;2022-07-29T07:50:27;7.78;;;2.03;;
23113;SDS011;11726;50.122;8.832;2022-07-29T07:52:54;5.38;;;2.15;;
23113;SDS011;11726;50.122;8.832;2022-07-29T07:55:24;6.10;;;2.40;;
23113;SDS011;11726;50.122;8.832;2022-07-29T07:57:51;3.70;;;2.28;;
23113;SDS011;11726;50.122;8.832;2022-07-29T08:00:19;5.22;;;2.35;;
23113;SDS011;11726;50.122;8.832;2022-07-29T08:02:49;5.88;;;2.28;;
23113;SDS011;11726;50.122;8.832;2022-07-29T08:05:16;7.80;;;2.38;;
23113;SDS011;11726;50.122;8.832;2022-07-29T08:07:45;4.18;;;2.15;;
23113;SDS011;11726;50.122;8.832;2022-07-29T08:10:15;4.72;;;2.25;;
23113;SDS011;11726;50.122;8.832;2022-07-29T08:13:15;5.32;;;2.35;;
23113;SDS011;11726;50.122;8.832;2022-07-29T08:15:41;5.00;;;2.40;;
23113;SDS011;11726;50.122;8.832;2022-07-29T08:18:09;4.68;;;2.00;;
23113;SDS011;11726;50.122;8.832;2022-07-29T08:20:35;4.75;;;2.63;;
23113;SDS011;11726;50.122;8.832;2022-07-29T08:23:04;5.95;;;2.58;;
23113;SDS011;11726;50.122;8.832;2022-07-29T08:25:32;3.17;;;2.55;;
23113;SDS011;11726;50.122;8.832;2022-07-29T08:28:03;5.30;;;2.40;;
23113;SDS011;11726;50.122;8.832;2022-07-29T08:30:30;5.30;;;2.47;;
23113;SDS011;11726;50.122;8.832;2022-07-29T08:32:58;4.43;;;2.22;;
23113;SDS011;11726;50.122;8.832;2022-07-29T08:35:25;8.15;;;2.63;;
23113;SDS011;11726;50.122;8.832;2022-07-29T08:37:52;6.50;;;2.42;;
23113;SDS011;11726;50.122;8.832;2022-07-29T08:40:19;7.32;;;2.45;;
23113;SDS011;11726;50.122;8.832;2022-07-29T08:42:57;5.10;;;2.53;;
23113;SDS011;11726;50.122;8.832;2022-07-29T08:45:25;5.95;;;2.50;;
23113;SDS011;11726;50.122;8.832;2022-07-29T08:47:55;5.55;;;2.40;;
23113;SDS011;11726;50.122;8.832;2022-07-29T08:50:22;4.97;;;2.53;;
23113;SDS011;11726;50.122;8.832;2022-07-29T08:52:49;9.90;;;2.88;;
23113;SDS011;11726;50.122;8.832;2022-07-29T08:55:19;6.18;;;2.78;;
23113;SDS011;11726;50.122;8.832;2022-07-29T08:57:47;5.68;;;2.30;;
23113;SDS011;11726;50.122;8.832;2022-07-29T09:00:19;4.38;;;2.95;;
23113;SDS011;11726;50.122;8.832;2022-07-29T09:02:50;9.70;;;3.00;;
23113;SDS011;11726;50.122;8.832;2022-07-29T09:05:22;8.73;;;2.72;;
23113;SDS011;11726;50.122;8.832;2022-07-29T09:07:50;8.75;;;2.95;;
23113;SDS011;11726;50.122;8.832;2022-07-29T09:10:18;5.22;;;2.53;;
23113;SDS011;11726;50.122;8.832;2022-07-29T09:12:44;4.38;;;2.38;;
23113;SDS011;11726;50.122;8.832;2022-07-29T09:15:11;4.95;;;2.30;;
23113;SDS011;11726;50.122;8.832;2022-07-29T09:17:42;3.25;;;2.47;;
23113;SDS011;11726;50.122;8.832;2022-07-29T09:20:12;4.43;;;2.47;;
23113;SDS011;11726;50.122;8.832;2022-07-29T09:22:41;8.32;;;2.75;;
23113;SDS011;11726;50.122;8.832;2022-07-29T09:25:08;7.28;;;2.63;;
23113;SDS011;11726;50.122;8.832;2022-07-29T09:27:37;5.30;;;2.42;;
23113;SDS011;11726;50.122;8.832;2022-07-29T09:30:05;6.13;;;2.55;;
23113;SDS011;11726;50.122;8.832;2022-07-29T09:32:33;4.80;;;2.80;;
23113;SDS011;11726;50.122;8.832;2022-07-29T09:35:20;6.45;;;2.50;;
23113;SDS011;11726;50.122;8.832;2022-07-29T09:37:48;7.05;;;2.90;;
23113;SDS011;11726;50.122;8.832;2022-07-29T09:40:33;7.00;;;2.88;;
23113;SDS011;11726;50.122;8.832;2022-07-29T09:45:35;6.07;;;2.60;;
23113;SDS011;11726;50.122;8.832;2022-07-29T09:48:19;6.93;;;2.72;;
23113;SDS011;11726;50.122;8.832;2022-07-29T09:50:48;6.38;;;2.65;;
23113;SDS011;11726;50.122;8.832;2022-07-29T09:53:31;6.65;;;2.70;;
23113;SDS011;11726;50.122;8.832;2022-07-29T09:55:59;7.30;;;2.80;;
23113;SDS011;11726;50.122;8.832;2022-07-29T09:58:26;4.65;;;2.60;;
23113;SDS011;11726;50.122;8.832;2022-07-29T10:00:54;5.85;;;2.80;;
23113;SDS011;11726;50.122;8.832;2022-07-29T10:03:21;6.88;;;2.63;;
23113;SDS011;11726;50.122;8.832;2022-07-29T10:06:08;5.25;;;2.80;;
23113;SDS011;11726;50.122;8.832;2022-07-29T10:08:36;6.45;;;2.65;;
23113;SDS011;11726;50.122;8.832;2022-07-29T10:13:41;10.50;;;3.03;;
23113;SDS011;11726;50.122;8.832;2022-07-29T10:16:08;6.10;;;3.13;;
23113;SDS011;11726;50.122;8.832;2022-07-29T10:18:39;7.18;;;2.70;;
23113;SDS011;11726;50.122;8.832;2022-07-29T10:21:10;3.35;;;2.50;;
23113;SDS011;11726;50.122;8.832;2022-07-29T10:23:57;6.00;;;2.97;;
23113;SDS011;11726;50.122;8.832;2022-07-29T10:26:26;6.53;;;2.72;;
23113;SDS011;11726;50.122;8.832;2022-07-29T10:28:53;7.07;;;2.72;;
23113;SDS011;11726;50.122;8.832;2022-07-29T10:34:19;5.25;;;2.85;;
23113;SDS011;11726;50.122;8.832;2022-07-29T10:37:08;5.78;;;2.70;;
23113;SDS011;11726;50.122;8.832;2022-07-29T10:42:27;6.05;;;2.50;;
23113;SDS011;11726;50.122;8.832;2022-07-29T10:44:59;6.18;;;2.55;;
23113;SDS011;11726;50.122;8.832;2022-07-29T10:47:29;4.45;;;2.58;;
23113;SDS011;11726;50.122;8.832;2022-07-29T10:50:00;4.78;;;3.00;;
23113;SDS011;11726;50.122;8.832;2022-07-29T10:55:32;5.55;;;3.05;;
23113;SDS011;11726;50.122;8.832;2022-07-29T10:58:12;6.53;;;2.88;;
23113;SDS011;11726;50.122;8.832;2022-07-29T11:00:50;3.72;;;2.40;;
23113;SDS011;11726;50.122;8.832;2022-07-29T11:06:16;5.22;;;2.70;;
23113;SDS011;11726;50.122;8.832;2022-07-29T11:09:16;6.20;;;2.78;;
23113;SDS011;11726;50.122;8.832;2022-07-29T11:11:51;5.28;;;2.60;;
23113;SDS011;11726;50.122;8.832;2022-07-29T11:14:18;4.88;;;2.80;;
23113;SDS011;11726;50.122;8.832;2022-07-29T11:17:28;7.78;;;2.67;;
23113;SDS011;11726;50.122;8.832;2022-07-29T11:23:24;6.82;;;2.90;;
23113;SDS011;11726;50.122;8.832;2022-07-29T11:26:18;6.35;;;2.92;;
23113;SDS011;11726;50.122;8.832;2022-07-29T11:28:50;4.53;;;2.63;;
23113;SDS011;11726;50.122;8.832;2022-07-29T11:31:44;3.70;;;2.75;;
23113;SDS011;11726;50.122;8.832;2022-07-29T11:34:27;5.93;;;2.80;;
23113;SDS011;11726;50.122;8.832;2022-07-29T11:48:03;3.22;;;2.60;;
23113;SDS011;11726;50.122;8.832;2022-07-29T11:50:51;4.82;;;2.67;;
23113;SDS011;11726;50.122;8.832;2022-07-29T11:53:18;6.50;;;2.90;;
23113;SDS011;11726;50.122;8.832;2022-07-29T11:55:45;5.47;;;2.80;;
23113;SDS011;11726;50.122;8.832;2022-07-29T11:58:23;6.40;;;2.95;;
23113;SDS011;11726;50.122;8.832;2022-07-29T12:00:51;4.43;;;2.70;;
23113;SDS011;11726;50.122;8.832;2022-07-29T12:03:27;4.63;;;2.65;;
23113;SDS011;11726;50.122;8.832;2022-07-29T12:06:00;3.75;;;2.60;;
23113;SDS011;11726;50.122;8.832;2022-07-29T12:08:27;5.00;;;2.67;;
23113;SDS011;11726;50.122;8.832;2022-07-29T12:10:54;4.95;;;2.50;;
23113;SDS011;11726;50.122;8.832;2022-07-29T12:13:21;3.85;;;2.47;;
23113;SDS011;11726;50.122;8.832;2022-07-29T12:16:03;5.07;;;2.67;;
23113;SDS011;11726;50.122;8.832;2022-07-29T12:18:30;7.28;;;2.70;;
23113;SDS011;11726;50.122;8.832;2022-07-29T12:20:58;3.20;;;2.80;;
23113;SDS011;11726;50.122;8.832;2022-07-29T12:23:29;3.13;;;2.60;;
23113;SDS011;11726;50.122;8.832;2022-07-29T12:26:00;6.03;;;3.30;;
23113;SDS011;11726;50.122;8.832;2022-07-29T12:28:38;3.35;;;2.90;;
23113;SDS011;11726;50.122;8.832;2022-07-29T12:31:05;4.57;;;2.80;;
23113;SDS011;11726;50.122;8.832;2022-07-29T12:33:38;5.20;;;2.70;;
23113;SDS011;11726;50.122;8.832;2022-07-29T12:36:05;5.95;;;2.50;;
23113;SDS011;11726;50.122;8.832;2022-07-29T12:38:39;5.35;;;2.67;;
23113;SDS011;11726;50.122;8.832;2022-07-29T12:41:06;5.38;;;2.83;;
23113;SDS011;11726;50.122;8.832;2022-07-29T12:43:33;6.05;;;2.72;;
23113;SDS011;11726;50.122;8.832;2022-07-29T12:46:10;6.15;;;2.80;;
23113;SDS011;11726;50.122;8.832;2022-07-29T12:48:40;3.85;;;2.40;;
23113;SDS011;11726;50.122;8.832;2022-07-29T12:51:08;6.07;;;2.88;;
23113;SDS011;11726;50.122;8.832;2022-07-29T12:53:37;4.85;;;2.85;;
23113;SDS011;11726;50.122;8.832;2022-07-29T12:56:06;5.72;;;2.50;;
23113;SDS011;11726;50.122;8.832;2022-07-29T12:59:10;6.70;;;2.78;;
23113;SDS011;11726;50.122;8.832;2022-07-29T13:01:44;3.00;;;2.70;;
23113;SDS011;11726;50.122;8.832;2022-07-29T13:04:34;5.30;;;2.58;;
23113;SDS011;11726;50.122;8.832;2022-07-29T13:07:03;5.38;;;2.97;;
23113;SDS011;11726;50.122;8.832;2022-07-29T13:09:39;4.75;;;2.60;;
23113;SDS011;11726;50.122;8.832;2022-07-29T13:12:08;5.95;;;3.00;;
23113;SDS011;11726;50.122;8.832;2022-07-29T13:14:40;6.30;;;2.75;;
23113;SDS011;11726;50.122;8.832;2022-07-29T13:20:07;5.57;;;2.90;;
23113;SDS011;11726;50.122;8.832;2022-07-29T13:22:38;4.57;;;2.92;;
23113;SDS011;11726;50.122;8.832;2022-07-29T13:25:06;5.05;;;2.53;;
23113;SDS011;11726;50.122;8.832;2022-07-29T13:27:34;7.13;;;2.90;;
23113;SDS011;11726;50.122;8.832;2022-07-29T13:30:06;4.70;;;2.80;;
23113;SDS011;11726;50.122;8.832;2022-07-29T13:32:34;7.63;;;2.90;;
23113;SDS011;11726;50.122;8.832;2022-07-29T13:35:03;3.40;;;2.83;;
23113;SDS011;11726;50.122;8.832;2022-07-29T13:37:32;4.50;;;2.60;;
23113;SDS011;11726;50.122;8.832;2022-07-29T13:40:01;3.20;;;2.38;;
23113;SDS011;11726;50.122;8.832;2022-07-29T13:42:29;4.03;;;2.60;;
23113;SDS011;11726;50.122;8.832;2022-07-29T13:44:56;4.60;;;2.83;;
23113;SDS011;11726;50.122;8.832;2022-07-29T13:47:23;5.15;;;2.70;;
23113;SDS011;11726;50.122;8.832;2022-07-29T13:49:58;6.05;;;2.88;;
23113;SDS011;11726;50.122;8.832;2022-07-29T13:52:25;4.93;;;2.78;;
23113;SDS011;11726;50.122;8.832;2022-07-29T13:54:53;5.15;;;2.88;;
23113;SDS011;11726;50.122;8.832;2022-07-29T13:57:20;6.35;;;3.00;;
23113;SDS011;11726;50.122;8.832;2022-07-29T13:59:47;4.88;;;2.78;;
23113;SDS011;11726;50.122;8.832;2022-07-29T14:02:19;2.90;;;2.63;;
23113;SDS011;11726;50.122;8.832;2022-07-29T14:04:50;7.93;;;2.83;;
23113;SDS011;11726;50.122;8.832;2022-07-29T14:07:17;5.55;;;3.20;;
23113;SDS011;11726;50.122;8.832;2022-07-29T14:09:44;3.80;;;2.90;;
23113;SDS011;11726;50.122;8.832;2022-07-29T14:12:10;3.47;;;2.67;;
23113;SDS011;11726;50.122;8.832;2022-07-29T14:14:37;2.85;;;2.45;;
23113;SDS011;11726;50.122;8.832;2022-07-29T14:17:04;4.78;;;2.72;;
23113;SDS011;11726;50.122;8.832;2022-07-29T14:19:32;5.03;;;2.70;;
23113;SDS011;11726;50.122;8.832;2022-07-29T14:22:05;5.60;;;2.50;;
23113;SDS011;11726;50.122;8.832;2022-07-29T14:24:33;5.07;;;2.92;;
23113;SDS011;11726;50.122;8.832;2022-07-29T14:27:04;4.82;;;2.70;;
23113;SDS011;11726;50.122;8.832;2022-07-29T14:29:31;6.15;;;2.60;;
23113;SDS011;11726;50.122;8.832;2022-07-29T14:32:07;3.50;;;2.50;;
23113;SDS011;11726;50.122;8.832;2022-07-29T14:34:35;5.75;;;2.90;;
23113;SDS011;11726;50.122;8.832;2022-07-29T14:37:03;5.07;;;2.80;;
23113;SDS011;11726;50.122;8.832;2022-07-29T14:39:32;5.82;;;2.70;;
23113;SDS011;11726;50.122;8.832;2022-07-29T14:42:04;5.13;;;2.60;;
23113;SDS011;11726;50.122;8.832;2022-07-29T14:44:31;3.75;;;2.63;;
23113;SDS011;11726;50.122;8.832;2022-07-29T14:46:58;3.60;;;2.65;;
23113;SDS011;11726;50.122;8.832;2022-07-29T14:49:26;3.63;;;2.67;;
23113;SDS011;11726;50.122;8.832;2022-07-29T14:51:53;5.03;;;2.70;;
23113;SDS011;11726;50.122;8.832;2022-07-29T14:54:20;5.93;;;2.58;;
23113;SDS011;11726;50.122;8.832;2022-07-29T14:56:47;6.50;;;2.70;;
23113;SDS011;11726;50.122;8.832;2022-07-29T14:59:15;5.32;;;3.00;;
23113;SDS011;11726;50.122;8.832;2022-07-29T15:01:42;10.27;;;3.25;;
23113;SDS011;11726;50.122;8.832;2022-07-29T15:04:09;30.85;;;3.80;;
23113;SDS011;11726;50.122;8.832;2022-07-29T15:06:36;9.77;;;4.10;;
23113;SDS011;11726;50.122;8.832;2022-07-29T15:09:03;5.00;;;3.35;;
23113;SDS011;11726;50.122;8.832;2022-07-29T15:11:30;5.85;;;3.25;;
23113;SDS011;11726;50.122;8.832;2022-07-29T15:14:03;4.28;;;2.92;;
23113;SDS011;11726;50.122;8.832;2022-07-29T15:16:29;7.88;;;3.72;;
23113;SDS011;11726;50.122;8.832;2022-07-29T15:18:56;7.18;;;3.80;;
23113;SDS011;11726;50.122;8.832;2022-07-29T15:21:26;6.97;;;3.95;;
23113;SDS011;11726;50.122;8.832;2022-07-29T15:23:53;8.68;;;3.97;;
23113;SDS011;11726;50.122;8.832;2022-07-29T15:26:19;5.15;;;4.30;;
23113;SDS011;11726;50.122;8.832;2022-07-29T15:28:47;4.35;;;3.78;;
23113;SDS011;11726;50.122;8.832;2022-07-29T15:31:14;7.90;;;4.13;;
23113;SDS011;11726;50.122;8.832;2022-07-29T15:33:40;6.65;;;4.00;;
23113;SDS011;11726;50.122;8.832;2022-07-29T15:36:07;6.85;;;4.22;;
23113;SDS011;11726;50.122;8.832;2022-07-29T15:38:34;5.57;;;3.70;;
23113;SDS011;11726;50.122;8.832;2022-07-29T15:41:07;8.88;;;4.60;;
23113;SDS011;11726;50.122;8.832;2022-07-29T15:43:33;6.70;;;3.85;;
23113;SDS011;11726;50.122;8.832;2022-07-29T15:46:03;6.20;;;3.70;;
23113;SDS011;11726;50.122;8.832;2022-07-29T15:48:48;9.00;;;3.80;;
23113;SDS011;11726;50.122;8.832;2022-07-29T15:51:15;3.92;;;3.00;;
23113;SDS011;11726;50.122;8.832;2022-07-29T15:53:42;5.18;;;3.60;;